Sao Carlos do Ivai, Brazil
Current Conditions -  °F | °C
As of 6:00 AM on Monday 20 Oct 2014 (Local Time) from SBMG Reporting Station
Broken Clouds Broken Clouds  
Wind Chill: 66°   Ceiling: 10000
Heat Index: 66°   Visibility: 6mi
Dew Point: 64°   Wind: 2mph
Humidity: 94%   Direction: 330°NNW
Pressure: 30"   Gusts: NA
Location:  23.32°S, 52.48°W
Report Text: SBMG 200900Z 33002KT 9999 FEW035 BKN100 19/18 Q1016
Loading
Personal Weather Stations






























Interactive Weather Map
Tropical Storm Tracking
New forecast layout! Learn more

10-Day Weather Forecast

Advertisements
Track Severe Weather on mobile